Time;durP1;ratioP1;P1;durP2;ratioP2;P2;SDS_P1;SDS_P2;PMS_P1;PMS_P2;Temp;Humidity;BMP_temperature;BMP_pressure;BME280_temperature;BME280_humidity;BME280_pressure;Samples;Min_cycle;Max_cycle;Signal;HPM_P1;HPM_P2
2022/09/19 00:01:54;;;;;;;1.73;0.40;;;;;;;11.25;81.26;101978.47;5057598;27;97491;-30
2022/09/19 00:04:29;;;;;;;0.47;0.15;;;;;;;11.28;81.34;101986.44;5039784;27;100911;-30
2022/09/19 00:06:55;;;;;;;0.28;0.28;;;;;;;11.27;81.34;101990.09;5058122;27;96507;-29
2022/09/19 00:09:23;;;;;;;3.53;0.80;;;;;;;11.26;81.53;101981.09;5039657;27;96903;-30
2022/09/19 00:11:51;;;;;;;2.88;0.60;;;;;;;11.29;81.58;101993.63;5038409;27;101035;-31
2022/09/19 00:14:20;;;;;;;4.05;0.50;;;;;;;11.27;81.43;101990.09;5039133;27;100768;-30
2022/09/19 00:16:46;;;;;;;4.40;0.60;;;;;;;11.26;81.92;101997.38;5039644;27;96548;-31
2022/09/19 00:19:15;;;;;;;2.95;0.68;;;;;;;11.26;81.86;101993.78;5039063;27;96852;-30
2022/09/19 00:21:43;;;;;;;1.50;0.60;;;;;;;11.26;81.60;101993.78;5039109;27;101230;-31
2022/09/19 00:26:56;;;;;;;4.90;0.40;;;;;;;11.32;81.65;101992.59;5057801;27;96826;-31
2022/09/19 00:29:22;;;;;;;0.85;0.15;;;;;;;11.31;81.63;101989.00;5058263;27;96817;-30
2022/09/19 00:31:49;;;;;;;2.92;0.38;;;;;;;11.36;81.66;102002.38;5038975;27;101059;-31
2022/09/19 00:34:17;;;;;;;0.47;0.20;;;;;;;11.34;81.49;101997.00;5038752;27;101295;-31
2022/09/19 00:36:43;;;;;;;4.45;0.28;;;;;;;11.33;81.64;101995.25;5038094;27;96664;-30
2022/09/19 00:39:21;;;;;;;4.25;0.60;;;;;;;11.31;81.79;101997.16;5039269;27;96834;-31
2022/09/19 00:41:47;;;;;;;2.67;0.55;;;;;;;11.31;81.81;101993.56;5057409;27;98098;-30
2022/09/19 00:44:21;;;;;;;2.65;0.52;;;;;;;11.29;82.03;101995.47;5038828;27;98960;-30
2022/09/19 00:47:08;;;;;;;4.55;0.75;;;;;;;11.24;81.98;101992.97;5057743;27;96490;-29
2022/09/19 00:49:37;;;;;;;3.00;0.63;;;;;;;11.22;81.85;102000.28;5056653;27;96847;-31
2022/09/19 00:52:07;;;;;;;0.50;0.25;;;;;;;11.14;81.98;101989.78;5038570;27;100987;-30
2022/09/19 00:54:36;;;;;;;1.63;0.50;;;;;;;11.13;81.96;101998.00;5057354;27;99321;-31
2022/09/19 00:57:04;;;;;;;0.55;0.20;;;;;;;11.04;82.05;101994.75;5039087;27;96611;-30
2022/09/19 00:59:35;;;;;;;2.35;0.32;;;;;;;11.01;82.28;102007.56;5057392;27;96771;-30
2022/09/19 01:02:04;;;;;;;1.97;0.40;;;;;;;10.97;82.24;102008.66;5038123;27;100979;-29
2022/09/19 01:04:34;;;;;;;0.73;0.17;;;;;;;10.93;82.31;102018.75;5038549;27;101074;-31
2022/09/19 01:07:29;;;;;;;5.38;0.35;;;;;;;10.91;82.51;102009.78;5038869;27;97139;-30
2022/09/19 01:10:00;;;;;;;0.43;0.13;;;;;;;10.89;82.65;102018.94;5054111;27;96876;-30
2022/09/19 01:13:01;;;;;;;5.78;0.55;;;;;;;10.86;82.99;102017.25;5038251;27;99080;-30
2022/09/19 01:15:38;;;;;;;2.22;0.38;;;;;;;10.85;82.99;102023.63;5056860;27;98161;-30
2022/09/19 01:18:05;;;;;;;0.45;0.25;;;;;;;10.87;82.89;102018.13;5057013;27;96453;-30
2022/09/19 01:20:58;;;;;;;1.88;0.30;;;;;;;10.88;83.24;102018.06;5056760;27;97605;-30
2022/09/19 01:23:24;;;;;;;1.75;0.47;;;;;;;10.89;83.39;102019.81;5056554;27;99294;-30
2022/09/19 01:26:15;;;;;;;2.38;0.47;;;;;;;10.90;83.29;102018.88;5056298;27;99716;-30
2022/09/19 01:29:09;;;;;;;0.57;0.13;;;;;;;10.90;83.24;102023.44;5038037;27;96642;-30
2022/09/19 01:31:40;;;;;;;0.45;0.20;;;;;;;10.88;83.18;102004.53;5056746;27;96812;-30
2022/09/19 01:34:27;;;;;;;0.95;0.45;;;;;;;10.92;83.25;102019.72;5038229;27;100250;-30
2022/09/19 01:37:04;;;;;;;4.85;0.20;;;;;;;10.91;82.90;102017.06;5056763;27;97412;-30
2022/09/19 01:39:33;;;;;;;2.97;0.32;;;;;;;10.89;83.03;102011.69;5038405;27;96758;-29
2022/09/19 01:41:59;;;;;;;0.95;0.05;;;;;;;10.88;83.38;102023.50;5038190;27;96911;-30
2022/09/19 01:44:27;;;;;;;2.15;0.47;;;;;;;10.88;83.33;102019.91;5056520;27;97981;-29
2022/09/19 01:46:59;;;;;;;1.00;0.40;;;;;;;10.86;83.40;102022.69;5037974;27;103918;-32
2022/09/19 01:49:57;;;;;;;0.73;0.17;;;;;;;10.82;83.46;102027.38;5056848;27;96569;-30
2022/09/19 01:52:25;;;;;;;2.42;0.45;;;;;;;10.80;83.40;102028.38;5038022;27;96887;-30
2022/09/19 01:55:24;;;;;;;0.40;0.20;;;;;;;10.74;83.60;102026.81;5055597;27;98000;-30
2022/09/19 01:58:06;;;;;;;0.40;0.20;;;;;;;10.75;83.26;102028.59;5037489;27;99373;-31
2022/09/19 02:00:34;;;;;;;2.13;0.20;;;;;;;10.71;83.15;102031.50;5038005;27;96740;-30
2022/09/19 02:03:25;;;;;;;3.00;0.45;;;;;;;10.68;83.35;102035.22;5037905;27;96853;-30
2022/09/19 02:06:07;;;;;;;4.88;0.52;;;;;;;10.63;83.29;102032.69;5037578;27;101376;-30
2022/09/19 02:08:45;;;;;;;1.00;0.20;;;;;;;10.59;83.31;102033.78;5055801;27;99863;-30
2022/09/19 02:11:21;;;;;;;1.23;0.35;;;;;;;10.55;83.33;102045.66;5037605;27;96594;-30
2022/09/19 02:13:53;;;;;;;1.23;0.32;;;;;;;10.51;83.42;102038.66;5056577;27;96903;-30
2022/09/19 02:16:30;;;;;;;0.28;0.20;;;;;;;10.50;83.70;102042.28;5037565;27;101173;-30
2022/09/19 02:19:05;;;;;;;1.90;0.20;;;;;;;10.45;83.35;102038.00;5055297;27;99686;-30
2022/09/19 02:21:39;;;;;;;0.65;0.13;;;;;;;10.41;83.69;102040.81;5037088;27;96906;-30
2022/09/19 02:24:13;;;;;;;2.05;0.20;;;;;;;10.40;83.32;102046.34;5037550;27;96735;-30
2022/09/19 02:26:42;;;;;;;3.17;0.20;;;;;;;10.38;83.25;102045.50;5055883;27;97438;-30
2022/09/19 02:29:12;;;;;;;4.35;0.50;;;;;;;10.32;83.23;102038.53;5037154;27;100776;-30
2022/09/19 02:31:38;;;;;;;1.00;0.40;;;;;;;10.28;83.31;102041.38;5055709;27;96718;-31
2022/09/19 02:34:06;;;;;;;1.90;0.43;;;;;;;10.26;83.25;102038.72;5037391;27;96996;-30
2022/09/19 02:36:42;;;;;;;0.55;0.20;;;;;;;10.25;83.38;102041.50;5037180;27;100802;-30
2022/09/19 02:39:13;;;;;;;0.98;0.30;;;;;;;10.24;83.34;102039.75;5055851;27;96967;-30
2022/09/19 02:41:56;;;;;;;0.43;0.20;;;;;;;10.13;83.31;102032.94;5037472;27;96766;-30
2022/09/19 02:44:36;;;;;;;0.65;0.08;;;;;;;10.13;83.22;102041.06;5055941;27;96797;-30
2022/09/19 02:47:17;;;;;;;2.72;0.38;;;;;;;10.11;83.38;102032.13;5055090;27;98024;-30
2022/09/19 02:49:55;;;;;;;0.25;0.17;;;;;;;10.06;83.32;102034.16;5037106;27;100982;-31
2022/09/19 02:52:28;;;;;;;0.68;0.43;;;;;;;10.05;83.58;102034.19;5037120;27;96725;-31
2022/09/19 02:55:02;;;;;;;0.30;0.13;;;;;;;10.05;83.54;102034.19;5037015;27;96814;-31
2022/09/19 02:57:30;;;;;;;3.95;0.55;;;;;;;10.01;83.37;102036.16;5036588;27;100938;-31
2022/09/19 02:59:59;;;;;;;4.13;0.55;;;;;;;9.98;83.53;102028.13;5036369;27;101050;-30
2022/09/19 03:02:30;;;;;;;2.33;0.30;;;;;;;9.96;83.48;102035.44;5037074;27;96531;-31
2022/09/19 03:05:13;;;;;;;0.43;0.10;;;;;;;9.94;83.43;102042.75;5037560;27;96727;-30
2022/09/19 03:07:45;;;;;;;1.10;0.25;;;;;;;9.89;83.33;102050.16;5055212;27;96609;-30
2022/09/19 03:10:12;;;;;;;3.70;0.45;;;;;;;9.88;83.45;102048.41;5036691;27;101017;-30
2022/09/19 03:13:03;;;;;;;0.73;0.15;;;;;;;9.86;83.56;102040.34;5035926;27;96839;-30
2022/09/19 03:15:47;;;;;;;0.20;0.10;;;;;;;9.84;83.40;102039.50;5055425;27;96582;-30
2022/09/19 03:18:16;;;;;;;1.85;0.30;;;;;;;9.79;83.39;102036.97;5054750;27;98963;-30
2022/09/19 03:20:48;;;;;;;2.67;0.32;;;;;;;9.77;83.54;102030.78;5036145;27;100850;-31
2022/09/19 03:23:17;;;;;;;0.57;0.22;;;;;;;9.76;83.24;102029.00;5036842;27;96689;-29
2022/09/19 03:25:43;;;;;;;2.05;0.45;;;;;;;9.72;83.45;102027.34;5054844;27;96803;-30
2022/09/19 03:28:09;;;;;;;7.10;0.60;;;;;;;9.74;83.22;102039.00;5036289;27;101457;-30
2022/09/19 03:30:35;;;;;;;0.50;0.20;;;;;;;9.73;83.30;102036.38;5055099;27;97842;-30
2022/09/19 03:33:00;;;;;;;0.43;0.08;;;;;;;9.70;83.50;102045.47;5055105;27;96487;-30
2022/09/19 03:35:26;;;;;;;0.30;0.20;;;;;;;9.68;83.43;102036.53;5054765;27;96829;-30
2022/09/19 03:37:51;;;;;;;0.95;0.22;;;;;;;9.67;83.75;102044.69;5054285;27;98001;-30
2022/09/19 03:40:17;;;;;;;0.52;0.13;;;;;;;9.64;83.12;102040.28;5054752;27;97779;-30
2022/09/19 03:42:45;;;;;;;0.38;0.30;;;;;;;9.64;83.39;102043.00;5054772;27;96660;-30
2022/09/19 03:45:10;;;;;;;0.47;0.10;;;;;;;9.63;83.50;102041.25;5054897;27;96716;-30
2022/09/19 03:47:36;;;;;;;1.83;0.47;;;;;;;9.63;83.80;102045.75;5054499;27;102278;-32
2022/09/19 03:50:01;;;;;;;0.82;0.28;;;;;;;9.60;83.25;102044.06;5054532;27;97874;-30
2022/09/19 03:52:27;;;;;;;1.40;0.25;;;;;;;9.61;83.39;102050.38;5054612;27;96633;-30
2022/09/19 03:54:53;;;;;;;1.27;0.22;;;;;;;9.57;83.11;102050.47;5055084;27;96799;-30
2022/09/19 03:57:19;;;;;;;0.25;0.13;;;;;;;9.57;83.34;102061.28;5054243;27;97979;-30
2022/09/19 03:59:45;;;;;;;1.98;0.32;;;;;;;9.55;83.31;102062.28;5054564;27;97598;-30
2022/09/19 04:02:11;;;;;;;0.32;0.20;;;;;;;9.53;83.32;102056.03;5054228;27;96661;-32
2022/09/19 04:04:37;;;;;;;4.53;0.47;;;;;;;9.52;83.48;102062.41;5054663;27;96747;-33
2022/09/19 04:07:03;;;;;;;1.73;0.30;;;;;;;9.51;83.45;102056.13;5035988;27;100946;-29
2022/09/19 04:09:29;;;;;;;0.95;0.17;;;;;;;9.54;83.19;102060.53;5035926;27;101415;-30
2022/09/19 04:11:56;;;;;;;3.53;0.47;;;;;;;9.52;83.13;102060.56;5057391;27;96724;-31
2022/09/19 04:14:22;;;;;;;0.57;0.22;;;;;;;9.51;83.45;102069.66;5057946;27;96748;-30
2022/09/19 04:16:47;;;;;;;1.52;0.55;;;;;;;9.49;83.59;102066.13;5039309;27;100696;-29
2022/09/19 04:19:12;;;;;;;7.40;0.60;;;;;;;9.49;83.48;102068.81;5057365;27;99929;-30
2022/09/19 04:21:41;;;;;;;0.68;0.30;;;;;;;9.45;83.35;102063.56;5057625;27;96650;-30
2022/09/19 04:24:08;;;;;;;0.10;0.10;;;;;;;9.44;83.34;102072.63;5039529;27;97000;-30
2022/09/19 04:26:33;;;;;;;1.27;0.15;;;;;;;9.45;83.62;102071.69;5038316;27;100664;-30
2022/09/19 04:29:02;;;;;;;0.22;0.10;;;;;;;9.42;83.26;102072.69;5039135;27;100782;-31
2022/09/19 04:31:27;;;;;;;0.10;0.10;;;;;;;9.38;83.39;102067.44;5057656;27;96470;-29
2022/09/19 04:33:54;;;;;;;3.78;0.32;;;;;;;9.40;83.41;102077.28;5057694;27;96966;-30
2022/09/19 04:36:20;;;;;;;0.30;0.20;;;;;;;9.35;83.48;102072.03;5057379;27;97958;-32
2022/09/19 04:38:46;;;;;;;1.67;0.47;;;;;;;9.36;83.43;102081.88;5057037;27;99268;-30
2022/09/19 04:41:12;;;;;;;0.90;0.13;;;;;;;9.33;83.41;102071.19;5057766;27;96612;-30
2022/09/19 04:43:38;;;;;;;0.88;0.45;;;;;;;9.35;83.40;102081.97;5057887;27;96891;-30
2022/09/19 04:46:06;;;;;;;2.55;0.47;;;;;;;9.37;83.38;102080.09;5057407;27;98324;-30
2022/09/19 04:48:31;;;;;;;0.43;0.20;;;;;;;9.35;83.57;102079.25;5057280;27;97743;-30
2022/09/19 04:50:57;;;;;;;0.77;0.13;;;;;;;9.35;83.72;102087.38;5056963;27;96552;-30
2022/09/19 04:53:24;;;;;;;2.60;0.65;;;;;;;9.35;83.52;102081.97;5057191;27;96811;-31
2022/09/19 04:55:52;;;;;;;0.10;0.10;;;;;;;9.35;83.62;102084.66;5038608;27;101073;-30
2022/09/19 04:58:18;;;;;;;0.28;0.25;;;;;;;9.34;83.60;102089.22;5038756;27;101280;-31
2022/09/19 05:00:45;;;;;;;0.68;0.28;;;;;;;9.34;83.43;102086.50;5038945;27;96494;-30
2022/09/19 05:03:16;;;;;;;0.10;0.10;;;;;;;9.34;83.46;102089.22;5039101;27;96877;-30
2022/09/19 05:05:45;;;;;;;0.85;0.40;;;;;;;9.32;83.39;102090.19;5056903;27;99257;-31
2022/09/19 05:08:14;;;;;;;2.08;0.40;;;;;;;9.30;83.43;102095.66;5038581;27;100950;-29
2022/09/19 05:10:40;;;;;;;1.27;0.30;;;;;;;9.28;83.63;102088.53;5038699;27;96869;-30
2022/09/19 05:13:15;;;;;;;4.88;0.50;;;;;;;9.28;83.45;102094.81;5056798;27;96852;-30
2022/09/19 05:15:41;;;;;;;0.03;0.00;;;;;;;9.26;83.56;102098.53;5056089;27;99470;-30
2022/09/19 05:18:10;;;;;;;4.75;0.43;;;;;;;9.27;83.37;102106.59;5038367;27;100885;-30
2022/09/19 05:20:37;;;;;;;0.05;0.05;;;;;;;9.24;83.19;102109.38;5037692;27;96515;-30
2022/09/19 05:23:03;;;;;;;0.25;0.17;;;;;;;9.25;83.49;102115.69;5037961;27;97133;-30
2022/09/19 05:25:30;;;;;;;0.28;0.20;;;;;;;9.25;83.50;102110.28;5038252;27;99579;-30
2022/09/19 05:27:57;;;;;;;3.33;0.52;;;;;;;9.26;83.64;102117.44;5037997;27;101182;-30
2022/09/19 05:30:24;;;;;;;1.58;0.50;;;;;;;9.25;83.59;102116.56;5037546;27;96996;-30
2022/09/19 05:32:52;;;;;;;3.63;0.30;;;;;;;9.23;83.49;102120.28;5056947;27;96789;-31
2022/09/19 05:35:18;;;;;;;1.08;0.32;;;;;;;9.25;83.57;102116.56;5036213;27;100838;-30
2022/09/19 05:37:46;;;;;;;0.85;0.25;;;;;;;9.24;83.86;102113.91;5038050;27;100881;-31
2022/09/19 05:40:11;;;;;;;2.90;0.13;;;;;;;9.24;83.45;102120.19;5037956;27;96490;-30
2022/09/19 05:42:41;;;;;;;2.40;0.50;;;;;;;9.25;83.80;102119.28;5056955;27;96846;-31
2022/09/19 05:45:07;;;;;;;1.20;0.47;;;;;;;9.28;83.69;102115.56;5036827;27;101172;-32
2022/09/19 05:47:33;;;;;;;0.43;0.20;;;;;;;9.29;83.80;102120.91;5035533;27;100714;-30
2022/09/19 05:49:58;;;;;;;1.45;0.45;;;;;;;9.29;83.86;102118.19;5037658;27;96682;-30
2022/09/19 05:55:08;;;;;;;0.73;0.43;;;;;;;9.38;83.97;102124.22;5053441;27;97046;-30
2022/09/19 05:57:34;;;;;;;2.10;0.82;;;;;;;9.36;84.07;102119.75;5038009;27;100689;-30
2022/09/19 05:59:59;;;;;;;1.33;0.50;;;;;;;9.42;83.86;102124.06;5056408;27;96581;-30
2022/09/19 06:02:24;;;;;;;0.50;0.40;;;;;;;9.46;83.95;102122.13;5055996;27;96498;-30
2022/09/19 06:04:50;;;;;;;4.18;0.45;;;;;;;9.48;83.98;102125.66;5054776;27;124537;-31
2022/09/19 06:07:15;;;;;;;0.32;0.32;;;;;;;9.53;84.01;102131.78;5055115;27;122962;-32
2022/09/19 06:09:42;;;;;;;0.57;0.38;;;;;;;9.55;83.64;102130.78;5055343;27;96670;-29
2022/09/19 06:12:07;;;;;;;0.60;0.40;;;;;;;9.59;84.12;102134.28;5034951;28;96878;-31
2022/09/19 06:14:38;;;;;;;1.23;0.60;;;;;;;9.62;83.71;102131.44;5035819;28;97399;-30
2022/09/19 06:17:04;;;;;;;0.35;0.22;;;;;;;9.67;83.53;102133.97;5035728;28;97820;-31
2022/09/19 06:19:29;;;;;;;0.68;0.25;;;;;;;9.76;83.32;102139.06;5021810;27;96760;-32
2022/09/19 06:21:56;;;;;;;2.25;0.60;;;;;;;9.79;83.32;102137.09;5056653;27;96811;-30
2022/09/19 06:24:22;;;;;;;5.47;0.43;;;;;;;9.87;83.45;102146.78;5037176;27;100798;-31
2022/09/19 06:26:47;;;;;;;4.15;0.65;;;;;;;9.92;83.19;102142.06;5055554;27;97780;-30
2022/09/19 06:29:12;;;;;;;0.65;0.25;;;;;;;10.00;83.53;102148.94;5054751;27;100925;-31
2022/09/19 06:31:38;;;;;;;1.85;0.40;;;;;;;10.08;83.15;102147.75;5055701;27;96932;-30
2022/09/19 06:34:04;;;;;;;0.68;0.30;;;;;;;10.11;83.06;102148.53;5035549;27;101343;-32
2022/09/19 06:36:29;;;;;;;1.40;0.45;;;;;;;10.15;82.70;102152.00;5055590;27;97271;-31
2022/09/19 06:38:54;;;;;;;1.70;0.35;;;;;;;10.19;82.60;102157.25;5055772;27;96435;-31
2022/09/19 06:41:19;;;;;;;1.58;0.35;;;;;;;10.25;82.33;102153.44;5055974;27;96832;-31
2022/09/19 06:43:45;;;;;;;1.58;0.38;;;;;;;10.32;81.94;102159.50;5055421;27;97872;-30
2022/09/19 06:46:10;;;;;;;2.03;0.60;;;;;;;10.36;82.08;102158.44;5050577;27;99625;-30
2022/09/19 06:48:36;;;;;;;0.93;0.28;;;;;;;10.42;82.22;102166.34;5047079;27;96820;-31
2022/09/19 06:51:02;;;;;;;0.28;0.15;;;;;;;10.48;82.01;102170.63;5055722;27;97162;-30
2022/09/19 06:53:28;;;;;;;1.63;0.50;;;;;;;10.49;81.67;102167.84;5036358;27;101088;-31
2022/09/19 06:55:55;;;;;;;2.38;0.43;;;;;;;10.54;81.63;102171.25;5055080;27;99315;-30
2022/09/19 06:58:21;;;;;;;0.98;0.38;;;;;;;10.68;81.52;102164.38;5037117;27;96636;-31
2022/09/19 07:00:46;;;;;;;0.82;0.30;;;;;;;10.83;81.04;102174.59;5055162;27;96857;-30
2022/09/19 07:03:16;;;;;;;3.33;0.50;;;;;;;11.01;80.70;102175.66;5054919;27;98836;-30
2022/09/19 07:05:44;;;;;;;0.30;0.20;;;;;;;11.18;80.53;102174.97;5036836;27;100658;-30
2022/09/19 07:08:12;;;;;;;4.75;0.63;;;;;;;11.36;79.94;102176.88;5054696;27;96703;-30
2022/09/19 07:10:37;;;;;;;0.93;0.50;;;;;;;11.53;79.57;102178.84;5037392;27;96843;-30
2022/09/19 07:13:04;;;;;;;2.63;0.65;;;;;;;11.68;79.43;102182.72;5054688;27;97821;-30
2022/09/19 07:15:37;;;;;;;0.82;0.45;;;;;;;11.83;78.87;102182.00;5036483;27;101556;-30
2022/09/19 07:18:08;;;;;;;0.15;0.15;;;;;;;11.96;78.67;102174.22;5036285;27;96668;-30
2022/09/19 07:20:34;;;;;;;7.20;0.70;;;;;;;12.08;78.39;102179.09;5036199;27;96778;-32
2022/09/19 07:23:03;;;;;;;2.08;0.47;;;;;;;12.18;78.12;102176.84;5036289;27;100791;-30
2022/09/19 07:25:30;;;;;;;4.57;0.77;;;;;;;12.32;77.66;102181.59;5036365;27;100885;-30
2022/09/19 07:28:00;;;;;;;0.60;0.20;;;;;;;12.44;77.43;102181.03;5036463;27;96530;-30
2022/09/19 07:30:26;;;;;;;0.43;0.20;;;;;;;12.54;77.22;102178.75;5055156;27;96543;-31
2022/09/19 07:32:57;;;;;;;5.30;0.52;;;;;;;12.66;76.84;102186.31;5036305;27;100758;-30
2022/09/19 07:35:27;;;;;;;1.15;0.25;;;;;;;12.78;76.69;102192.09;5054992;27;97824;-31
2022/09/19 07:37:54;;;;;;;1.17;0.40;;;;;;;12.90;76.63;102189.66;5055159;27;96498;-32
2022/09/19 07:40:20;;;;;;;2.85;0.40;;;;;;;13.07;76.01;102188.78;5036305;27;97724;-31
2022/09/19 07:42:45;;;;;;;0.20;0.20;;;;;;;13.23;75.81;102190.72;5054148;27;97408;-31
2022/09/19 07:45:11;;;;;;;5.13;0.45;;;;;;;13.45;75.32;102198.72;5056529;27;98862;-30
2022/09/19 07:47:43;;;;;;;4.68;0.65;;;;;;;13.66;74.75;102191.25;5058258;27;96577;-31
2022/09/19 07:50:11;;;;;;;1.48;0.63;;;;;;;13.87;74.39;102195.56;5040217;27;96744;-30
2022/09/19 07:52:36;;;;;;;1.20;0.40;;;;;;;13.91;74.03;102194.41;5039569;27;100643;-30
2022/09/19 07:55:02;;;;;;;2.15;0.40;;;;;;;13.92;73.52;102203.47;5058233;27;97763;-30
2022/09/19 07:57:29;;;;;;;2.38;0.35;;;;;;;13.89;73.84;102209.97;5058064;27;96495;-30
2022/09/19 07:59:54;;;;;;;1.50;0.30;;;;;;;13.77;74.01;102207.91;5040277;27;96825;-30
2022/09/19 08:02:20;;;;;;;3.45;0.30;;;;;;;13.67;73.97;102210.22;5058049;27;97893;-30
2022/09/19 08:04:45;;;;;;;1.27;0.55;;;;;;;13.59;73.84;102207.91;5058037;27;96934;-31
2022/09/19 08:07:11;;;;;;;1.65;0.47;;;;;;;13.53;74.15;102213.66;5057585;27;96463;-30
2022/09/19 08:09:36;;;;;;;3.42;0.68;;;;;;;13.50;74.69;102222.00;5057884;27;96788;-30
2022/09/19 08:12:06;;;;;;;2.20;0.50;;;;;;;13.48;74.86;102220.31;5057444;27;99842;-30
2022/09/19 08:14:31;;;;;;;6.65;0.60;;;;;;;13.40;74.32;102217.13;5039472;27;101956;-30
2022/09/19 08:16:57;;;;;;;0.63;0.28;;;;;;;13.40;74.93;102220.72;5057936;27;96633;-31
2022/09/19 08:19:23;;;;;;;2.58;0.60;;;;;;;13.43;74.48;102222.41;5057659;27;96860;-32
2022/09/19 08:21:49;;;;;;;2.40;0.47;;;;;;;13.48;74.54;102229.38;5057462;27;97580;-30
2022/09/19 08:24:14;;;;;;;3.08;0.43;;;;;;;13.48;74.54;102242.97;5039585;27;99226;-31
2022/09/19 08:26:42;;;;;;;3.13;0.60;;;;;;;13.50;74.17;102237.47;5057562;27;96662;-30
2022/09/19 08:29:08;;;;;;;1.80;0.47;;;;;;;13.47;74.67;102240.34;5057789;27;96856;-30
2022/09/19 08:31:33;;;;;;;1.70;0.32;;;;;;;13.46;74.54;102244.91;5056747;27;99732;-30
2022/09/19 08:33:58;;;;;;;2.30;0.20;;;;;;;13.48;74.46;102248.41;5057442;27;103840;-31
2022/09/19 08:36:24;;;;;;;1.00;0.60;;;;;;;13.46;74.34;102241.28;5057474;27;96790;-31
2022/09/19 08:38:49;;;;;;;1.45;0.17;;;;;;;13.47;74.15;102241.22;5057971;27;96831;-30
2022/09/19 08:41:50;;;;;;;2.78;0.38;;;;;;;13.52;73.38;102243.72;5057528;27;98003;-30
2022/09/19 08:44:49;;;;;;;0.38;0.13;;;;;;;13.56;74.31;102246.19;5057652;27;97358;-30
2022/09/19 08:47:21;;;;;;;0.35;0.20;;;;;;;13.58;73.73;102236.09;5036443;27;96595;-30
2022/09/19 08:49:59;;;;;;;1.05;0.30;;;;;;;13.66;73.76;102241.16;5036931;27;96712;-30
2022/09/19 08:52:30;;;;;;;4.28;0.65;;;;;;;13.76;73.23;102244.28;5036300;27;101118;-30
2022/09/19 08:54:57;;;;;;;3.00;0.20;;;;;;;13.82;72.40;102246.66;5036232;27;101249;-30
2022/09/19 08:57:33;;;;;;;0.80;0.22;;;;;;;13.92;71.11;102249.78;5034758;27;96692;-30
2022/09/19 09:00:16;;;;;;;4.88;0.25;;;;;;;14.08;70.49;102250.72;5036401;27;97223;-30
2022/09/19 09:03:06;;;;;;;7.65;0.85;;;;;;;14.17;70.74;102258.41;5054700;27;97439;-31
2022/09/19 09:05:45;;;;;;;2.30;0.17;;;;;;;14.22;70.52;102253.56;5036159;27;101132;-29
2022/09/19 09:08:34;;;;;;;0.85;0.17;;;;;;;14.19;70.10;102248.31;5036467;27;96914;-30
2022/09/19 09:11:31;;;;;;;1.08;0.25;;;;;;;14.24;70.53;102251.66;5036202;27;96743;-30
2022/09/19 09:14:14;;;;;;;0.47;0.20;;;;;;;14.30;71.67;102253.19;5053713;27;99516;-30
2022/09/19 09:17:08;;;;;;;0.80;0.45;;;;;;;14.29;70.38;102248.69;5054773;27;97425;-29
2022/09/19 09:19:39;;;;;;;2.28;0.43;;;;;;;14.36;69.92;102255.56;5035391;27;96662;-29
2022/09/19 09:22:20;;;;;;;2.47;0.30;;;;;;;14.39;69.85;102259.94;5054612;27;96801;-31
2022/09/19 09:25:13;;;;;;;6.30;0.43;;;;;;;14.52;69.98;102260.19;5053867;27;98172;-30
2022/09/19 09:28:06;;;;;;;2.00;0.40;;;;;;;14.62;68.96;102256.88;5035487;27;101140;-29
2022/09/19 09:30:37;;;;;;;3.38;0.70;;;;;;;14.82;68.53;102258.47;5035668;27;97728;-29
2022/09/19 09:33:23;;;;;;;2.42;0.10;;;;;;;15.18;67.55;102259.16;5035785;27;96780;-30
2022/09/19 09:35:57;;;;;;;0.10;0.05;;;;;;;15.28;66.66;102244.91;5054148;27;97922;-30
2022/09/19 09:38:30;;;;;;;2.40;0.60;;;;;;;15.36;66.12;102259.94;5053853;27;99316;-30
2022/09/19 09:44:16;;;;;;;1.08;0.40;;;;;;;15.35;66.89;102263.63;5054841;27;96589;-30
2022/09/19 09:46:53;;;;;;;0.57;0.25;;;;;;;15.35;65.21;102266.34;5053577;27;99441;-31
2022/09/19 09:49:21;;;;;;;2.10;0.50;;;;;;;15.35;65.42;102252.72;5035289;27;101560;-30
2022/09/19 09:52:22;;;;;;;1.27;0.40;;;;;;;15.44;65.98;102260.34;5035014;27;96563;-31
2022/09/19 09:58:44;;;;;;;2.53;0.45;;;;;;;15.62;66.42;102266.59;5050914;27;98081;-30
2022/09/19 10:04:17;;;;;;;1.00;0.25;;;;;;;15.91;65.63;102270.31;5053918;27;96579;-29
2022/09/19 10:07:12;;;;;;;1.15;0.22;;;;;;;15.98;65.44;102265.34;5035246;27;96838;-30
2022/09/19 10:09:45;;;;;;;1.05;0.20;;;;;;;16.06;63.76;102269.34;5052818;27;98159;-30
2022/09/19 10:12:23;;;;;;;1.80;0.30;;;;;;;16.10;64.03;102268.19;5034998;27;100778;-31
2022/09/19 10:14:53;;;;;;;1.33;0.40;;;;;;;16.16;62.61;102271.50;5053393;27;96750;-30
2022/09/19 10:17:19;;;;;;;1.42;0.40;;;;;;;16.40;63.83;102266.34;5035035;27;96818;-30
2022/09/19 10:19:48;;;;;;;3.88;0.50;;;;;;;16.69;61.93;102270.84;5033794;27;100918;-30
2022/09/19 10:22:15;;;;;;;2.70;0.17;;;;;;;17.14;61.83;102267.97;5034670;27;100787;-30
2022/09/19 10:24:50;;;;;;;2.10;0.20;;;;;;;17.52;59.87;102262.66;5035098;27;96581;-29
2022/09/19 10:27:23;;;;;;;3.78;1.23;;;;;;;17.77;59.46;102259.06;5053147;27;96992;-30
2022/09/19 10:29:56;;;;;;;3.58;0.32;;;;;;;18.03;58.72;102264.63;5034706;27;99229;-30
2022/09/19 10:32:24;;;;;;;5.30;0.75;;;;;;;18.37;58.22;102262.22;5052213;27;99265;-30
2022/09/19 10:34:50;;;;;;;5.50;1.00;;;;;;;18.58;57.51;102263.41;5053061;27;96502;-31
2022/09/19 10:37:18;;;;;;;1.35;0.40;;;;;;;18.40;58.34;102271.13;5034968;27;97257;-29
2022/09/19 10:39:46;;;;;;;6.65;0.82;;;;;;;18.11;56.45;102259.47;5034598;27;101536;-29
2022/09/19 10:42:27;;;;;;;0.80;0.35;;;;;;;17.77;58.52;102274.66;5052619;27;98488;-30
2022/09/19 10:44:52;;;;;;;2.60;0.60;;;;;;;17.53;59.64;102271.72;5052326;27;96545;-31
2022/09/19 10:47:18;;;;;;;0.32;0.22;;;;;;;17.48;59.34;102263.81;5053233;27;96738;-31
2022/09/19 10:49:46;;;;;;;0.55;0.10;;;;;;;17.56;59.39;102266.03;5034164;27;101204;-30
2022/09/19 10:52:30;;;;;;;0.25;0.10;;;;;;;17.75;59.63;102272.00;5034362;27;101337;-30
2022/09/19 10:54:58;;;;;;;1.38;0.32;;;;;;;18.01;58.39;102272.97;5053067;27;96665;-30
2022/09/19 10:57:51;;;;;;;2.03;0.45;;;;;;;18.23;56.07;102266.84;5034495;27;96860;-31
2022/09/19 11:00:20;;;;;;;1.42;0.25;;;;;;;18.13;57.81;102267.59;5052638;27;98078;-30
2022/09/19 11:02:55;;;;;;;0.45;0.20;;;;;;;18.09;55.54;102275.19;5053066;27;98049;-30
2022/09/19 11:05:27;;;;;;;1.90;0.43;;;;;;;18.02;54.84;102274.72;5034445;27;96659;-30
2022/09/19 11:07:56;;;;;;;;;;;;;;;18.03;56.32;102283.81;5034792;27;96913;-31
2022/09/19 11:10:33;;;;;;;0.77;0.25;;;;;;;18.14;56.44;102275.72;5033675;27;101226;-31
2022/09/19 11:13:25;;;;;;;6.32;0.60;;;;;;;18.39;55.60;102277.59;5052096;27;99868;-30
2022/09/19 11:16:29;;;;;;;0.28;0.20;;;;;;;18.68;54.47;102277.34;5047708;27;96958;-30
2022/09/19 11:19:39;;;;;;;1.77;0.47;;;;;;;18.96;53.74;102269.84;5025744;27;96808;-29
2022/09/19 11:22:31;;;;;;;1.90;0.50;;;;;;;19.15;53.53;102266.59;5011529;28;99368;-31
2022/09/19 11:25:17;;;;;;;1.10;0.30;;;;;;;19.41;52.98;102261.88;5010479;28;100772;-30
2022/09/19 11:28:21;;;;;;;1.52;0.20;;;;;;;19.54;51.08;102276.41;5010545;28;96825;-31
2022/09/19 11:31:12;;;;;;;2.72;0.35;;;;;;;19.44;50.84;102273.50;5012419;28;96558;-30
2022/09/19 11:34:30;;;;;;;1.70;0.40;;;;;;;19.41;51.09;102282.00;4981501;28;100876;-30
2022/09/19 11:36:59;;;;;;;2.13;0.30;;;;;;;19.04;53.12;102273.81;5012091;28;98049;-30
2022/09/19 11:39:24;;;;;;;2.92;0.43;;;;;;;19.27;52.25;102273.91;5010099;28;96739;-30
2022/09/19 11:42:26;;;;;;;2.63;0.37;;;;;;;19.53;52.34;102258.19;5011790;28;96820;-33
2022/09/19 11:45:05;;;;;;;3.80;0.60;;;;;;;19.41;52.72;102268.25;5010303;28;99339;-30
2022/09/19 11:48:08;;;;;;;3.10;0.30;;;;;;;19.29;51.95;102261.81;5010225;28;100753;-30
2022/09/19 11:50:50;;;;;;;2.15;0.45;;;;;;;19.46;51.87;102262.41;5012037;28;96743;-30
2022/09/19 11:53:52;;;;;;;3.03;0.25;;;;;;;19.79;51.64;102269.06;5011635;28;96624;-30
2022/09/19 11:56:48;;;;;;;2.60;0.40;;;;;;;19.65;51.78;102262.72;5010174;28;100902;-30
2022/09/19 11:59:46;;;;;;;2.42;0.80;;;;;;;19.16;51.35;102262.84;5003420;28;100304;-30
2022/09/19 12:02:36;;;;;;;2.20;0.45;;;;;;;19.41;53.04;102259.13;5011885;28;96528;-30
2022/09/19 12:05:28;;;;;;;1.55;0.32;;;;;;;19.09;52.08;102257.84;5010277;28;96807;-30
2022/09/19 12:08:26;;;;;;;0.65;0.30;;;;;;;18.71;52.93;102259.75;5010034;28;100770;-30